Gallup Municipal Airport
KGUP : now visible

Airfield :











YOU CAN JOIN US ON...

 
LOGIN :

Register | Disclaimer

   EN    FR    IT 

 









Legend :    VFR   Marginal VFR   IFR   Intensive IFR   Very Intensive IFR
Visi :
Ceiling :
>= 8 km
>= 3000ft
5 to 8 km
1000 to 3000 ft
1500m to 5 km
500 to 1000 ft
800 to 1500m
200 to 500 ft
< 800m
< 200 ft
Symbols :   Thunderstorms  Fog  Heavy snow  Heavy precipitations  Wind > 20 kt






- Airport Elevation : 6472 ft
- IATA code : GUP


KGUP - Gallup Municipal

CURRENT METAR :
  • 191716Z AUTO 05006KT 1SM -SN BR BKN011 OVC020 M01/M03 A3020 RMK AO2 P0000 T10111028

EXPIRED METARs :
  • 191700Z AUTO 06009KT 1SM -SN BR SCT010 BKN018 OVC026 M01/M03 A3019 RMK AO2 P0000 T10111028
  • 191653Z AUTO 06009KT 1 1/4SM -SN BR BKN010 BKN016 OVC026 M01/M03 A3018 RMK AO2 SLP225 P0002 T10111028
  • 191632Z AUTO 06006KT 3/4SM -SN BR BKN010 OVC016 M01/M03 A3017 RMK AO2 P0001 T10111028
  • 191607Z AUTO 08007KT 3/4SM -SN BR SCT010 OVC016 M01/M03 A3016 RMK AO2 P0000 T10111028
  • 191553Z AUTO 05005KT 1SM -SN BR BKN014 BKN028 OVC034 M01/M03 A3015 RMK AO2 SLP204 P0001 T10111028
  • 191545Z AUTO 06006KT 1 1/2SM -SN BR FEW016 OVC030 M01/M03 A3014 RMK AO2 P0001 T10111028
  • 191531Z AUTO 07005KT 2 1/2SM -SN BR OVC034 M01/M03 A3013 RMK AO2 P0000 T10111028
  • 191453Z AUTO 08003KT 9SM -SN BKN034 OVC045 00/M03 A3011 RMK AO2 SLP190 P0000 60000 T00001028 53025
  • 191431Z AUTO 13008KT 6SM -SN BR SCT022 BKN032 OVC042 M01/M03 A3009 RMK AO2 P0000 T10061028

TAF KGUP
Valid from the 19 at 16:00 until the 20 at 12:00 UTC


191613Z 1916/2012 09009KT 6SM -SN OVC035
TEMPO 1916/1919 3/4SM -SN BR OVC015
FM191900 08011KT P6SM BKN030 OVC050
FM192200 07010KT P6SM BKN050 OVC100
FM200200 08008KT P6SM SCT040 BKN100
KZAB FIR / North America



MET'MAP, your aeronautical weather chart ! - Copyright ORBIFLY December 2007 - Disclaimer

ORBIFLY MET'MAP TEAM :

Programming & Development : Alexandra Zaïnal
Concept & original design : Baudouin d'Aumeries
Assistance for programming : Marc-Olivier Méhu
Technical & hardware support : Manuel Goepfert

Contact : metmap@orbifly.com




SOURCES & CREDITS :

   NOAA       Earth
Advisory